sensor_id;sensor_type;location;lat;lon;timestamp;pressure;altitude;pressure_sealevel;temperature
6454;BMP180;3260;52.438;13.502;2022-07-11T04:00:33;101295.00;;;13.40
6454;BMP180;3260;52.438;13.502;2022-07-11T04:03:01;101291.00;;;13.00
6454;BMP180;3260;52.438;13.502;2022-07-11T04:05:30;101296.00;;;13.30
6454;BMP180;3260;52.438;13.502;2022-07-11T04:07:58;101287.00;;;13.60
6454;BMP180;3260;52.438;13.502;2022-07-11T04:10:26;101291.00;;;13.70
6454;BMP180;3260;52.438;13.502;2022-07-11T04:12:54;101287.00;;;13.60
6454;BMP180;3260;52.438;13.502;2022-07-11T04:15:22;101286.00;;;13.60
6454;BMP180;3260;52.438;13.502;2022-07-11T04:17:52;101287.00;;;13.50
6454;BMP180;3260;52.438;13.502;2022-07-11T04:20:20;101285.00;;;13.50
6454;BMP180;3260;52.438;13.502;2022-07-11T04:22:48;101294.00;;;13.80
6454;BMP180;3260;52.438;13.502;2022-07-11T04:25:17;101295.00;;;14.20
6454;BMP180;3260;52.438;13.502;2022-07-11T04:27:45;101296.00;;;14.30
6454;BMP180;3260;52.438;13.502;2022-07-11T04:30:13;101287.00;;;14.30
6454;BMP180;3260;52.438;13.502;2022-07-11T04:32:41;101297.00;;;14.30
6454;BMP180;3260;52.438;13.502;2022-07-11T04:35:11;101295.00;;;14.80
6454;BMP180;3260;52.438;13.502;2022-07-11T04:37:39;101293.00;;;14.60
6454;BMP180;3260;52.438;13.502;2022-07-11T04:40:08;101290.00;;;14.90
6454;BMP180;3260;52.438;13.502;2022-07-11T04:42:40;101289.00;;;14.20
6454;BMP180;3260;52.438;13.502;2022-07-11T04:45:09;101263.00;;;14.40
6454;BMP180;3260;52.438;13.502;2022-07-11T04:47:37;101305.00;;;14.30
6454;BMP180;3260;52.438;13.502;2022-07-11T04:50:07;101284.00;;;14.60
6454;BMP180;3260;52.438;13.502;2022-07-11T04:52:36;101296.00;;;14.50
6454;BMP180;3260;52.438;13.502;2022-07-11T04:55:06;101294.00;;;14.50
6454;BMP180;3260;52.438;13.502;2022-07-11T04:57:34;101296.00;;;14.80
6454;BMP180;3260;52.438;13.502;2022-07-11T05:00:04;101304.00;;;15.10
6454;BMP180;3260;52.438;13.502;2022-07-11T05:02:32;101305.00;;;15.10
6454;BMP180;3260;52.438;13.502;2022-07-11T05:05:01;101304.00;;;15.30
6454;BMP180;3260;52.438;13.502;2022-07-11T05:07:29;101310.00;;;15.50
6454;BMP180;3260;52.438;13.502;2022-07-11T05:09:58;101304.00;;;14.90
6454;BMP180;3260;52.438;13.502;2022-07-11T05:12:26;101307.00;;;15.30
6454;BMP180;3260;52.438;13.502;2022-07-11T05:14:54;101306.00;;;15.40
6454;BMP180;3260;52.438;13.502;2022-07-11T05:17:25;101297.00;;;15.00
6454;BMP180;3260;52.438;13.502;2022-07-11T05:19:53;101299.00;;;15.00
6454;BMP180;3260;52.438;13.502;2022-07-11T05:22:21;101313.00;;;15.40
6454;BMP180;3260;52.438;13.502;2022-07-11T05:24:49;101319.00;;;15.30
6454;BMP180;3260;52.438;13.502;2022-07-11T05:27:19;101320.00;;;15.20
6454;BMP180;3260;52.438;13.502;2022-07-11T05:29:47;101319.00;;;15.40
6454;BMP180;3260;52.438;13.502;2022-07-11T05:32:15;101308.00;;;15.20
6454;BMP180;3260;52.438;13.502;2022-07-11T05:34:43;101317.00;;;15.40
6454;BMP180;3260;52.438;13.502;2022-07-11T05:37:12;101322.00;;;15.60
6454;BMP180;3260;52.438;13.502;2022-07-11T05:39:40;101326.00;;;15.50
6454;BMP180;3260;52.438;13.502;2022-07-11T05:42:08;101320.00;;;15.20
6454;BMP180;3260;52.438;13.502;2022-07-11T05:44:38;101324.00;;;15.50
6454;BMP180;3260;52.438;13.502;2022-07-11T05:47:06;101324.00;;;15.50
6454;BMP180;3260;52.438;13.502;2022-07-11T05:49:34;101325.00;;;15.40
6454;BMP180;3260;52.438;13.502;2022-07-11T05:52:03;101317.00;;;15.50
6454;BMP180;3260;52.438;13.502;2022-07-11T05:54:31;101338.00;;;15.50
6454;BMP180;3260;52.438;13.502;2022-07-11T05:56:59;101335.00;;;15.80
6454;BMP180;3260;52.438;13.502;2022-07-11T05:59:28;101336.00;;;16.00
6454;BMP180;3260;52.438;13.502;2022-07-11T06:01:57;101340.00;;;16.20
6454;BMP180;3260;52.438;13.502;2022-07-11T06:04:26;101333.00;;;16.30
6454;BMP180;3260;52.438;13.502;2022-07-11T06:06:54;101335.00;;;16.00
6454;BMP180;3260;52.438;13.502;2022-07-11T06:09:22;101325.00;;;16.70
6454;BMP180;3260;52.438;13.502;2022-07-11T06:11:49;101337.00;;;16.90
6454;BMP180;3260;52.438;13.502;2022-07-11T06:14:18;101343.00;;;16.80
6454;BMP180;3260;52.438;13.502;2022-07-11T06:16:47;101341.00;;;16.40
6454;BMP180;3260;52.438;13.502;2022-07-11T06:19:16;101339.00;;;16.80
6454;BMP180;3260;52.438;13.502;2022-07-11T06:21:45;101321.00;;;17.00
6454;BMP180;3260;52.438;13.502;2022-07-11T06:24:13;101313.00;;;17.10
6454;BMP180;3260;52.438;13.502;2022-07-11T06:26:41;101350.00;;;16.90
6454;BMP180;3260;52.438;13.502;2022-07-11T06:29:09;101342.00;;;16.90
6454;BMP180;3260;52.438;13.502;2022-07-11T06:31:37;101341.00;;;16.50
6454;BMP180;3260;52.438;13.502;2022-07-11T06:34:05;101336.00;;;16.80
6454;BMP180;3260;52.438;13.502;2022-07-11T06:36:35;101343.00;;;16.80
6454;BMP180;3260;52.438;13.502;2022-07-11T06:39:03;101345.00;;;16.70
6454;BMP180;3260;52.438;13.502;2022-07-11T06:41:31;101335.00;;;17.00
6454;BMP180;3260;52.438;13.502;2022-07-11T06:43:59;101344.00;;;16.50
6454;BMP180;3260;52.438;13.502;2022-07-11T06:46:27;101345.00;;;17.10
6454;BMP180;3260;52.438;13.502;2022-07-11T06:48:56;101341.00;;;17.30
6454;BMP180;3260;52.438;13.502;2022-07-11T06:51:24;101343.00;;;16.70
6454;BMP180;3260;52.438;13.502;2022-07-11T06:53:54;101344.00;;;17.20
6454;BMP180;3260;52.438;13.502;2022-07-11T06:56:22;101347.00;;;17.30
6454;BMP180;3260;52.438;13.502;2022-07-11T06:58:50;101342.00;;;16.80
6454;BMP180;3260;52.438;13.502;2022-07-11T07:01:18;101341.00;;;17.10
6454;BMP180;3260;52.438;13.502;2022-07-11T07:03:47;101341.00;;;16.80
6454;BMP180;3260;52.438;13.502;2022-07-11T07:06:15;101339.00;;;17.10
6454;BMP180;3260;52.438;13.502;2022-07-11T07:08:43;101347.00;;;17.30
6454;BMP180;3260;52.438;13.502;2022-07-11T07:11:14;101348.00;;;17.80
6454;BMP180;3260;52.438;13.502;2022-07-11T07:13:42;101347.00;;;17.90
6454;BMP180;3260;52.438;13.502;2022-07-11T07:16:12;101349.00;;;17.70
6454;BMP180;3260;52.438;13.502;2022-07-11T07:18:40;101342.00;;;17.60
6454;BMP180;3260;52.438;13.502;2022-07-11T07:21:13;101333.00;;;17.90
6454;BMP180;3260;52.438;13.502;2022-07-11T07:23:41;101345.00;;;17.90
6454;BMP180;3260;52.438;13.502;2022-07-11T07:26:09;101347.00;;;18.30
6454;BMP180;3260;52.438;13.502;2022-07-11T07:28:39;101358.00;;;18.30
6454;BMP180;3260;52.438;13.502;2022-07-11T07:31:08;101357.00;;;18.20
6454;BMP180;3260;52.438;13.502;2022-07-11T07:33:42;101363.00;;;18.00
6454;BMP180;3260;52.438;13.502;2022-07-11T07:36:13;101352.00;;;17.90
6454;BMP180;3260;52.438;13.502;2022-07-11T07:38:44;101371.00;;;18.10
6454;BMP180;3260;52.438;13.502;2022-07-11T07:41:14;101359.00;;;18.00
6454;BMP180;3260;52.438;13.502;2022-07-11T07:43:44;101361.00;;;18.40
6454;BMP180;3260;52.438;13.502;2022-07-11T07:46:12;101360.00;;;18.50
6454;BMP180;3260;52.438;13.502;2022-07-11T07:48:41;101370.00;;;18.50
6454;BMP180;3260;52.438;13.502;2022-07-11T07:51:09;101374.00;;;18.70
6454;BMP180;3260;52.438;13.502;2022-07-11T07:53:37;101375.00;;;18.70
6454;BMP180;3260;52.438;13.502;2022-07-11T07:56:06;101381.00;;;19.00
6454;BMP180;3260;52.438;13.502;2022-07-11T07:58:35;101380.00;;;18.80
6454;BMP180;3260;52.438;13.502;2022-07-11T08:01:05;101383.00;;;18.70
6454;BMP180;3260;52.438;13.502;2022-07-11T08:03:51;101359.00;;;19.40
6454;BMP180;3260;52.438;13.502;2022-07-11T08:06:19;101372.00;;;19.60
6454;BMP180;3260;52.438;13.502;2022-07-11T08:08:47;101378.00;;;19.70
6454;BMP180;3260;52.438;13.502;2022-07-11T08:11:16;101379.00;;;19.40
6454;BMP180;3260;52.438;13.502;2022-07-11T08:13:58;101375.00;;;18.90
6454;BMP180;3260;52.438;13.502;2022-07-11T08:16:28;101363.00;;;19.20
6454;BMP180;3260;52.438;13.502;2022-07-11T08:18:59;101388.00;;;19.70
6454;BMP180;3260;52.438;13.502;2022-07-11T08:21:28;101374.00;;;19.20
6454;BMP180;3260;52.438;13.502;2022-07-11T08:23:56;101387.00;;;19.10
6454;BMP180;3260;52.438;13.502;2022-07-11T08:26:25;101374.00;;;19.30
6454;BMP180;3260;52.438;13.502;2022-07-11T08:29:00;101379.00;;;19.10
6454;BMP180;3260;52.438;13.502;2022-07-11T08:31:30;101382.00;;;19.70
6454;BMP180;3260;52.438;13.502;2022-07-11T08:33:59;101371.00;;;20.20
6454;BMP180;3260;52.438;13.502;2022-07-11T08:36:27;101363.00;;;20.20
6454;BMP180;3260;52.438;13.502;2022-07-11T08:38:57;101380.00;;;20.10
6454;BMP180;3260;52.438;13.502;2022-07-11T08:41:26;101386.00;;;20.30
6454;BMP180;3260;52.438;13.502;2022-07-11T08:43:54;101387.00;;;20.50
6454;BMP180;3260;52.438;13.502;2022-07-11T08:46:23;101392.00;;;21.00
6454;BMP180;3260;52.438;13.502;2022-07-11T08:48:54;101386.00;;;20.90
6454;BMP180;3260;52.438;13.502;2022-07-11T08:51:23;101387.00;;;20.70
6454;BMP180;3260;52.438;13.502;2022-07-11T08:53:54;101389.00;;;21.10
6454;BMP180;3260;52.438;13.502;2022-07-11T08:56:24;101391.00;;;21.30
6454;BMP180;3260;52.438;13.502;2022-07-11T08:58:54;101380.00;;;21.90
6454;BMP180;3260;52.438;13.502;2022-07-11T09:01:29;101379.00;;;22.40
6454;BMP180;3260;52.438;13.502;2022-07-11T09:04:00;101386.00;;;22.10
6454;BMP180;3260;52.438;13.502;2022-07-11T09:06:29;101381.00;;;22.20
6454;BMP180;3260;52.438;13.502;2022-07-11T09:08:59;101388.00;;;22.90
6454;BMP180;3260;52.438;13.502;2022-07-11T09:11:28;101391.00;;;22.90
6454;BMP180;3260;52.438;13.502;2022-07-11T09:13:58;101389.00;;;23.10
6454;BMP180;3260;52.438;13.502;2022-07-11T09:16:26;101390.00;;;22.40
6454;BMP180;3260;52.438;13.502;2022-07-11T09:19:00;101390.00;;;22.50
6454;BMP180;3260;52.438;13.502;2022-07-11T09:21:30;101390.00;;;22.70
6454;BMP180;3260;52.438;13.502;2022-07-11T09:24:15;101387.00;;;23.80
6454;BMP180;3260;52.438;13.502;2022-07-11T09:27:10;101391.00;;;23.60
6454;BMP180;3260;52.438;13.502;2022-07-11T09:29:38;101397.00;;;24.20
6454;BMP180;3260;52.438;13.502;2022-07-11T09:32:07;101398.00;;;23.20
6454;BMP180;3260;52.438;13.502;2022-07-11T09:34:36;101395.00;;;23.00
6454;BMP180;3260;52.438;13.502;2022-07-11T09:37:11;101388.00;;;22.90
6454;BMP180;3260;52.438;13.502;2022-07-11T09:39:39;101385.00;;;22.80
6454;BMP180;3260;52.438;13.502;2022-07-11T09:42:07;101388.00;;;21.90
6454;BMP180;3260;52.438;13.502;2022-07-11T09:44:35;101379.00;;;22.30
6454;BMP180;3260;52.438;13.502;2022-07-11T09:47:08;101388.00;;;22.20
6454;BMP180;3260;52.438;13.502;2022-07-11T09:49:40;101383.00;;;21.90
6454;BMP180;3260;52.438;13.502;2022-07-11T09:52:11;101345.00;;;22.80
6454;BMP180;3260;52.438;13.502;2022-07-11T09:54:55;101385.00;;;22.30
6454;BMP180;3260;52.438;13.502;2022-07-11T09:57:32;101384.00;;;23.50
6454;BMP180;3260;52.438;13.502;2022-07-11T10:00:04;101385.00;;;23.40
6454;BMP180;3260;52.438;13.502;2022-07-11T10:02:33;101389.00;;;22.90
6454;BMP180;3260;52.438;13.502;2022-07-11T10:05:04;101387.00;;;22.70
6454;BMP180;3260;52.438;13.502;2022-07-11T10:07:32;101386.00;;;23.00
6454;BMP180;3260;52.438;13.502;2022-07-11T10:10:04;101385.00;;;23.10
6454;BMP180;3260;52.438;13.502;2022-07-11T10:12:32;101376.00;;;23.70
6454;BMP180;3260;52.438;13.502;2022-07-11T10:15:04;101387.00;;;23.90
6454;BMP180;3260;52.438;13.502;2022-07-11T10:17:47;101388.00;;;24.50
6454;BMP180;3260;52.438;13.502;2022-07-11T10:20:30;101396.00;;;25.00
6454;BMP180;3260;52.438;13.502;2022-07-11T10:23:12;101388.00;;;25.20
6454;BMP180;3260;52.438;13.502;2022-07-11T10:25:48;101383.00;;;25.20
6454;BMP180;3260;52.438;13.502;2022-07-11T10:28:26;101383.00;;;25.20
6454;BMP180;3260;52.438;13.502;2022-07-11T10:30:55;101389.00;;;26.10
6454;BMP180;3260;52.438;13.502;2022-07-11T10:33:28;101396.00;;;26.10
6454;BMP180;3260;52.438;13.502;2022-07-11T10:35:58;101390.00;;;25.30
6454;BMP180;3260;52.438;13.502;2022-07-11T10:38:27;101383.00;;;25.70
6454;BMP180;3260;52.438;13.502;2022-07-11T10:40:56;101377.00;;;25.30
6454;BMP180;3260;52.438;13.502;2022-07-11T10:43:37;101386.00;;;25.70
6454;BMP180;3260;52.438;13.502;2022-07-11T10:46:09;101385.00;;;25.50
6454;BMP180;3260;52.438;13.502;2022-07-11T10:48:58;101379.00;;;25.40
6454;BMP180;3260;52.438;13.502;2022-07-11T10:51:37;101383.00;;;26.40
6454;BMP180;3260;52.438;13.502;2022-07-11T10:54:49;101385.00;;;26.30
6454;BMP180;3260;52.438;13.502;2022-07-11T10:57:27;101396.00;;;25.30
6454;BMP180;3260;52.438;13.502;2022-07-11T10:59:59;101385.00;;;24.80
6454;BMP180;3260;52.438;13.502;2022-07-11T11:02:29;101378.00;;;25.80
6454;BMP180;3260;52.438;13.502;2022-07-11T11:04:58;101383.00;;;26.00
6454;BMP180;3260;52.438;13.502;2022-07-11T11:07:39;101379.00;;;27.00
6454;BMP180;3260;52.438;13.502;2022-07-11T11:10:50;101381.00;;;27.50
6454;BMP180;3260;52.438;13.502;2022-07-11T11:13:19;101372.00;;;28.20
6454;BMP180;3260;52.438;13.502;2022-07-11T11:15:50;101376.00;;;28.00
6454;BMP180;3260;52.438;13.502;2022-07-11T11:18:42;101388.00;;;28.20
6454;BMP180;3260;52.438;13.502;2022-07-11T11:21:23;101390.00;;;27.00
6454;BMP180;3260;52.438;13.502;2022-07-11T11:24:04;101385.00;;;26.70
6454;BMP180;3260;52.438;13.502;2022-07-11T11:26:48;101384.00;;;28.10
6454;BMP180;3260;52.438;13.502;2022-07-11T11:29:22;101378.00;;;29.50
6454;BMP180;3260;52.438;13.502;2022-07-11T11:31:57;101385.00;;;29.20
6454;BMP180;3260;52.438;13.502;2022-07-11T11:34:26;101380.00;;;30.10
6454;BMP180;3260;52.438;13.502;2022-07-11T11:36:59;101382.00;;;32.40
6454;BMP180;3260;52.438;13.502;2022-07-11T11:39:33;101389.00;;;32.40
6454;BMP180;3260;52.438;13.502;2022-07-11T11:42:11;101387.00;;;31.80
6454;BMP180;3260;52.438;13.502;2022-07-11T11:44:58;101379.00;;;32.40
6454;BMP180;3260;52.438;13.502;2022-07-11T11:47:29;101373.00;;;32.60
6454;BMP180;3260;52.438;13.502;2022-07-11T11:49:58;101382.00;;;32.10
6454;BMP180;3260;52.438;13.502;2022-07-11T11:52:28;101381.00;;;31.80
6454;BMP180;3260;52.438;13.502;2022-07-11T11:54:58;101389.00;;;31.10
6454;BMP180;3260;52.438;13.502;2022-07-11T11:57:28;101382.00;;;30.60
6454;BMP180;3260;52.438;13.502;2022-07-11T11:59:57;101388.00;;;31.90
6454;BMP180;3260;52.438;13.502;2022-07-11T12:02:28;101375.00;;;34.20
6454;BMP180;3260;52.438;13.502;2022-07-11T12:04:58;101386.00;;;37.10
6454;BMP180;3260;52.438;13.502;2022-07-11T12:07:30;101381.00;;;37.40
6454;BMP180;3260;52.438;13.502;2022-07-11T12:10:00;101382.00;;;35.90
6454;BMP180;3260;52.438;13.502;2022-07-11T12:12:31;101380.00;;;36.70
6454;BMP180;3260;52.438;13.502;2022-07-11T12:15:33;101383.00;;;37.70
6454;BMP180;3260;52.438;13.502;2022-07-11T12:18:22;101381.00;;;39.60
6454;BMP180;3260;52.438;13.502;2022-07-11T12:20:52;101393.00;;;40.90
6454;BMP180;3260;52.438;13.502;2022-07-11T12:23:20;101401.00;;;38.50
6454;BMP180;3260;52.438;13.502;2022-07-11T12:25:51;101384.00;;;41.50
6454;BMP180;3260;52.438;13.502;2022-07-11T12:28:19;101393.00;;;41.30
6454;BMP180;3260;52.438;13.502;2022-07-11T12:30:54;101392.00;;;41.90
6454;BMP180;3260;52.438;13.502;2022-07-11T12:33:24;101400.00;;;44.80
6454;BMP180;3260;52.438;13.502;2022-07-11T12:35:55;101394.00;;;46.00
6454;BMP180;3260;52.438;13.502;2022-07-11T12:38:23;101384.00;;;40.70
6454;BMP180;3260;52.438;13.502;2022-07-11T12:41:04;101386.00;;;36.70
6454;BMP180;3260;52.438;13.502;2022-07-11T12:43:41;101383.00;;;37.60
6454;BMP180;3260;52.438;13.502;2022-07-11T12:46:29;101388.00;;;39.60
6454;BMP180;3260;52.438;13.502;2022-07-11T12:49:02;101386.00;;;43.00
6454;BMP180;3260;52.438;13.502;2022-07-11T12:51:33;101398.00;;;46.20
6454;BMP180;3260;52.438;13.502;2022-07-11T12:54:05;101393.00;;;46.40
6454;BMP180;3260;52.438;13.502;2022-07-11T12:56:35;101393.00;;;43.40
6454;BMP180;3260;52.438;13.502;2022-07-11T12:59:04;101396.00;;;41.20
6454;BMP180;3260;52.438;13.502;2022-07-11T13:01:55;101389.00;;;38.40
6454;BMP180;3260;52.438;13.502;2022-07-11T13:04:37;101387.00;;;38.60
6454;BMP180;3260;52.438;13.502;2022-07-11T13:07:25;101395.00;;;40.00
6454;BMP180;3260;52.438;13.502;2022-07-11T13:10:13;101396.00;;;42.70
6454;BMP180;3260;52.438;13.502;2022-07-11T13:12:46;101397.00;;;47.00
6454;BMP180;3260;52.438;13.502;2022-07-11T13:15:16;101395.00;;;43.60
6454;BMP180;3260;52.438;13.502;2022-07-11T13:17:47;101380.00;;;42.00
6454;BMP180;3260;52.438;13.502;2022-07-11T13:20:19;101390.00;;;39.60
6454;BMP180;3260;52.438;13.502;2022-07-11T13:22:49;101394.00;;;35.70
6454;BMP180;3260;52.438;13.502;2022-07-11T13:25:19;101376.00;;;34.40
6454;BMP180;3260;52.438;13.502;2022-07-11T13:27:50;101381.00;;;32.30
6454;BMP180;3260;52.438;13.502;2022-07-11T13:30:22;101391.00;;;36.30
6454;BMP180;3260;52.438;13.502;2022-07-11T13:33:14;101389.00;;;39.30
6454;BMP180;3260;52.438;13.502;2022-07-11T13:35:42;101390.00;;;39.10
6454;BMP180;3260;52.438;13.502;2022-07-11T13:38:10;101400.00;;;41.90
6454;BMP180;3260;52.438;13.502;2022-07-11T13:40:38;101394.00;;;41.30
6454;BMP180;3260;52.438;13.502;2022-07-11T13:43:08;101400.00;;;38.80
6454;BMP180;3260;52.438;13.502;2022-07-11T13:45:37;101396.00;;;36.80
6454;BMP180;3260;52.438;13.502;2022-07-11T13:48:06;101394.00;;;35.20
6454;BMP180;3260;52.438;13.502;2022-07-11T13:50:34;101392.00;;;36.30
6454;BMP180;3260;52.438;13.502;2022-07-11T13:53:03;101394.00;;;41.00
6454;BMP180;3260;52.438;13.502;2022-07-11T13:55:31;101397.00;;;42.10
6454;BMP180;3260;52.438;13.502;2022-07-11T13:58:00;101380.00;;;42.60
6454;BMP180;3260;52.438;13.502;2022-07-11T14:00:30;101399.00;;;45.10
6454;BMP180;3260;52.438;13.502;2022-07-11T14:02:59;101392.00;;;47.30
6454;BMP180;3260;52.438;13.502;2022-07-11T14:05:28;101399.00;;;50.70
6454;BMP180;3260;52.438;13.502;2022-07-11T14:07:56;101394.00;;;49.60
6454;BMP180;3260;52.438;13.502;2022-07-11T14:10:24;101402.00;;;45.40
6454;BMP180;3260;52.438;13.502;2022-07-11T14:12:55;101395.00;;;40.70
6454;BMP180;3260;52.438;13.502;2022-07-11T14:15:24;101399.00;;;39.80
6454;BMP180;3260;52.438;13.502;2022-07-11T14:17:53;101394.00;;;39.70
6454;BMP180;3260;52.438;13.502;2022-07-11T14:20:22;101396.00;;;38.60
6454;BMP180;3260;52.438;13.502;2022-07-11T14:22:50;101395.00;;;38.50
6454;BMP180;3260;52.438;13.502;2022-07-11T14:25:19;101394.00;;;37.90
6454;BMP180;3260;52.438;13.502;2022-07-11T14:27:47;101389.00;;;36.50
6454;BMP180;3260;52.438;13.502;2022-07-11T14:30:15;101389.00;;;35.90
6454;BMP180;3260;52.438;13.502;2022-07-11T14:32:44;101386.00;;;34.50
6454;BMP180;3260;52.438;13.502;2022-07-11T14:35:13;101390.00;;;33.30
6454;BMP180;3260;52.438;13.502;2022-07-11T14:37:41;101393.00;;;33.70
6454;BMP180;3260;52.438;13.502;2022-07-11T14:40:10;101393.00;;;35.90
6454;BMP180;3260;52.438;13.502;2022-07-11T14:42:38;101393.00;;;37.10
6454;BMP180;3260;52.438;13.502;2022-07-11T14:45:10;101396.00;;;35.50
6454;BMP180;3260;52.438;13.502;2022-07-11T14:47:39;101395.00;;;34.30
6454;BMP180;3260;52.438;13.502;2022-07-11T14:50:09;101393.00;;;33.30
6454;BMP180;3260;52.438;13.502;2022-07-11T14:52:38;101377.00;;;32.40
6454;BMP180;3260;52.438;13.502;2022-07-11T14:55:07;101390.00;;;32.30
6454;BMP180;3260;52.438;13.502;2022-07-11T14:57:36;101400.00;;;37.00
6454;BMP180;3260;52.438;13.502;2022-07-11T15:00:07;101397.00;;;41.50
6454;BMP180;3260;52.438;13.502;2022-07-11T15:02:36;101407.00;;;45.30
6454;BMP180;3260;52.438;13.502;2022-07-11T15:05:21;101408.00;;;47.70
6454;BMP180;3260;52.438;13.502;2022-07-11T15:07:51;101404.00;;;46.90
6454;BMP180;3260;52.438;13.502;2022-07-11T15:10:36;101408.00;;;47.40
6454;BMP180;3260;52.438;13.502;2022-07-11T15:13:25;101418.00;;;44.80
6454;BMP180;3260;52.438;13.502;2022-07-11T15:15:53;101407.00;;;48.80
6454;BMP180;3260;52.438;13.502;2022-07-11T15:18:21;101417.00;;;48.60
6454;BMP180;3260;52.438;13.502;2022-07-11T15:20:50;101420.00;;;47.40
6454;BMP180;3260;52.438;13.502;2022-07-11T15:23:20;101422.00;;;43.10
6454;BMP180;3260;52.438;13.502;2022-07-11T15:25:49;101420.00;;;39.90
6454;BMP180;3260;52.438;13.502;2022-07-11T15:28:17;101415.00;;;39.90
6454;BMP180;3260;52.438;13.502;2022-07-11T15:30:57;101404.00;;;39.30
6454;BMP180;3260;52.438;13.502;2022-07-11T15:33:25;101403.00;;;39.30
6454;BMP180;3260;52.438;13.502;2022-07-11T15:35:53;101402.00;;;38.60
6454;BMP180;3260;52.438;13.502;2022-07-11T15:38:23;101402.00;;;38.00
6454;BMP180;3260;52.438;13.502;2022-07-11T15:40:53;101406.00;;;39.40
6454;BMP180;3260;52.438;13.502;2022-07-11T15:43:22;101411.00;;;36.60
6454;BMP180;3260;52.438;13.502;2022-07-11T15:45:50;101413.00;;;37.30
6454;BMP180;3260;52.438;13.502;2022-07-11T15:48:19;101415.00;;;36.30
6454;BMP180;3260;52.438;13.502;2022-07-11T15:50:47;101414.00;;;34.40
6454;BMP180;3260;52.438;13.502;2022-07-11T15:53:16;101410.00;;;32.70
6454;BMP180;3260;52.438;13.502;2022-07-11T15:55:46;101408.00;;;30.20
6454;BMP180;3260;52.438;13.502;2022-07-11T15:58:14;101407.00;;;28.70
6454;BMP180;3260;52.438;13.502;2022-07-11T16:00:43;101403.00;;;29.30
6454;BMP180;3260;52.438;13.502;2022-07-11T16:03:11;101403.00;;;29.60
6454;BMP180;3260;52.438;13.502;2022-07-11T16:05:40;101407.00;;;31.00
6454;BMP180;3260;52.438;13.502;2022-07-11T16:08:08;101410.00;;;30.10
6454;BMP180;3260;52.438;13.502;2022-07-11T16:10:36;101405.00;;;29.30
6454;BMP180;3260;52.438;13.502;2022-07-11T16:13:13;101400.00;;;29.70
6454;BMP180;3260;52.438;13.502;2022-07-11T16:15:43;101401.00;;;29.40
6454;BMP180;3260;52.438;13.502;2022-07-11T16:18:14;101403.00;;;29.00
6454;BMP180;3260;52.438;13.502;2022-07-11T16:20:43;101403.00;;;27.70
6454;BMP180;3260;52.438;13.502;2022-07-11T16:23:11;101406.00;;;26.90
6454;BMP180;3260;52.438;13.502;2022-07-11T16:25:40;101400.00;;;26.00
6454;BMP180;3260;52.438;13.502;2022-07-11T16:28:08;101398.00;;;26.20
6454;BMP180;3260;52.438;13.502;2022-07-11T16:30:41;101403.00;;;26.00
6454;BMP180;3260;52.438;13.502;2022-07-11T16:33:10;101403.00;;;26.90
6454;BMP180;3260;52.438;13.502;2022-07-11T16:35:38;101384.00;;;26.90
6454;BMP180;3260;52.438;13.502;2022-07-11T16:38:06;101403.00;;;27.10
6454;BMP180;3260;52.438;13.502;2022-07-11T16:40:35;101399.00;;;27.10
6454;BMP180;3260;52.438;13.502;2022-07-11T16:43:20;101393.00;;;26.50
6454;BMP180;3260;52.438;13.502;2022-07-11T16:45:52;101405.00;;;26.70
6454;BMP180;3260;52.438;13.502;2022-07-11T16:48:23;101393.00;;;26.40
6454;BMP180;3260;52.438;13.502;2022-07-11T16:50:51;101399.00;;;26.60
6454;BMP180;3260;52.438;13.502;2022-07-11T16:53:22;101403.00;;;26.70
6454;BMP180;3260;52.438;13.502;2022-07-11T16:55:52;101397.00;;;26.80
6454;BMP180;3260;52.438;13.502;2022-07-11T16:58:20;101386.00;;;26.90
6454;BMP180;3260;52.438;13.502;2022-07-11T17:00:50;101399.00;;;28.10
6454;BMP180;3260;52.438;13.502;2022-07-11T17:03:19;101391.00;;;31.80
6454;BMP180;3260;52.438;13.502;2022-07-11T17:05:47;101400.00;;;34.20
6454;BMP180;3260;52.438;13.502;2022-07-11T17:08:15;101407.00;;;35.00
6454;BMP180;3260;52.438;13.502;2022-07-11T17:11:04;101399.00;;;34.80
6454;BMP180;3260;52.438;13.502;2022-07-11T17:13:34;101402.00;;;34.70
6454;BMP180;3260;52.438;13.502;2022-07-11T17:16:04;101409.00;;;37.30
6454;BMP180;3260;52.438;13.502;2022-07-11T17:18:33;101390.00;;;39.60
6454;BMP180;3260;52.438;13.502;2022-07-11T17:21:03;101408.00;;;40.50
6454;BMP180;3260;52.438;13.502;2022-07-11T17:23:33;101408.00;;;39.70
6454;BMP180;3260;52.438;13.502;2022-07-11T17:26:01;101409.00;;;40.30
6454;BMP180;3260;52.438;13.502;2022-07-11T17:28:30;101413.00;;;40.70
6454;BMP180;3260;52.438;13.502;2022-07-11T17:30:58;101415.00;;;40.20
6454;BMP180;3260;52.438;13.502;2022-07-11T17:33:29;101406.00;;;39.00
6454;BMP180;3260;52.438;13.502;2022-07-11T17:35:57;101409.00;;;37.00
6454;BMP180;3260;52.438;13.502;2022-07-11T17:38:26;101426.00;;;38.50
6454;BMP180;3260;52.438;13.502;2022-07-11T17:40:54;101422.00;;;38.60
6454;BMP180;3260;52.438;13.502;2022-07-11T17:43:22;101431.00;;;38.20
6454;BMP180;3260;52.438;13.502;2022-07-11T17:45:50;101425.00;;;36.10
6454;BMP180;3260;52.438;13.502;2022-07-11T17:48:19;101417.00;;;33.30
6454;BMP180;3260;52.438;13.502;2022-07-11T17:50:49;101417.00;;;31.80
6454;BMP180;3260;52.438;13.502;2022-07-11T17:53:37;101424.00;;;30.60
6454;BMP180;3260;52.438;13.502;2022-07-11T17:56:06;101420.00;;;31.30
6454;BMP180;3260;52.438;13.502;2022-07-11T17:58:35;101422.00;;;32.90
6454;BMP180;3260;52.438;13.502;2022-07-11T18:01:03;101429.00;;;33.60
6454;BMP180;3260;52.438;13.502;2022-07-11T18:03:32;101418.00;;;34.70
6454;BMP180;3260;52.438;13.502;2022-07-11T18:06:02;101426.00;;;35.30
6454;BMP180;3260;52.438;13.502;2022-07-11T18:08:30;101423.00;;;35.40
6454;BMP180;3260;52.438;13.502;2022-07-11T18:10:58;101426.00;;;35.50
6454;BMP180;3260;52.438;13.502;2022-07-11T18:13:28;101422.00;;;34.20
6454;BMP180;3260;52.438;13.502;2022-07-11T18:15:57;101426.00;;;32.90
6454;BMP180;3260;52.438;13.502;2022-07-11T18:18:25;101404.00;;;32.50
6454;BMP180;3260;52.438;13.502;2022-07-11T18:20:53;101420.00;;;31.30
6454;BMP180;3260;52.438;13.502;2022-07-11T18:23:23;101419.00;;;30.50
6454;BMP180;3260;52.438;13.502;2022-07-11T18:25:52;101420.00;;;29.60
6454;BMP180;3260;52.438;13.502;2022-07-11T18:28:20;101410.00;;;29.20
6454;BMP180;3260;52.438;13.502;2022-07-11T18:30:48;101417.00;;;28.80